Lac Seul, Canada
Current Conditions -  °F | °C
As of 1:00 PM on Saturday 20 Dec 2014 (Local Time) from CYXL Reporting Station
Light Snow Light Snow  
Wind Chill: 19°   Ceiling: 800
Heat Index: 27°   Visibility: 10mi
Dew Point: 23°   Wind: 7mph
Humidity: 86%   Direction: 170°S
Pressure: 30.02"   Gusts: NA
Location:  50.32°N, 92.28°W
Report Text: CYXL 201900Z 17006KT 10SM -SN OVC008 M03/M05 A3002 RMK SC8 SLP191
Loading
Personal Weather Stations






























Interactive Weather Map New forecast layout! Learn more

10-Day Weather Forecast

Advertisements
Track Severe Weather on mobile